createdAt,value
2018-08-19T00:02:23.659Z,24.13
2018-08-19T00:05:06.168Z,24.01
2018-08-19T00:07:35.767Z,23.79
2018-08-19T00:10:06.299Z,23.83
2018-08-19T00:12:38.061Z,23.78
2018-08-19T00:15:07.967Z,23.85
2018-08-19T00:17:37.543Z,23.77
2018-08-19T00:20:09.355Z,23.85
2018-08-19T00:22:38.912Z,23.86
2018-08-19T00:25:08.970Z,23.90
2018-08-19T00:27:39.144Z,23.99
2018-08-19T00:30:09.827Z,23.99
2018-08-19T00:32:39.412Z,23.97
2018-08-19T00:35:08.923Z,23.93
2018-08-19T00:37:38.572Z,23.94
2018-08-19T00:40:12.483Z,23.94
2018-08-19T00:42:43.798Z,23.88
2018-08-19T00:45:13.748Z,23.77
2018-08-19T00:47:43.286Z,23.79
2018-08-19T00:50:12.847Z,23.75
2018-08-19T00:52:42.507Z,23.72
2018-08-19T00:55:12.302Z,23.60
2018-08-19T00:57:44.054Z,23.51
2018-08-19T01:00:13.769Z,23.44
2018-08-19T01:02:43.312Z,23.57
2018-08-19T01:05:12.976Z,23.48
2018-08-19T01:07:42.798Z,23.39
2018-08-19T01:10:12.395Z,23.48
2018-08-19T01:12:42.099Z,23.46
2018-08-19T01:15:14.675Z,23.50
2018-08-19T01:17:45.164Z,23.49
2018-08-19T01:20:19.298Z,23.49
2018-08-19T01:22:48.979Z,23.45
2018-08-19T01:25:18.778Z,23.30
2018-08-19T01:27:48.376Z,23.37
2018-08-19T01:30:21.384Z,23.39
2018-08-19T01:32:51.019Z,23.37
2018-08-19T01:35:26.977Z,23.24
2018-08-19T01:37:56.530Z,23.19
2018-08-19T01:40:26.154Z,23.07
2018-08-19T01:42:55.707Z,23.16
2018-08-19T01:45:25.275Z,23.15
2018-08-19T01:47:54.871Z,23.15
2018-08-19T01:50:24.398Z,23.14
2018-08-19T01:52:53.911Z,23.05
2018-08-19T01:55:23.484Z,23.01
2018-08-19T01:57:53.143Z,23.03
2018-08-19T02:00:22.679Z,22.92
2018-08-19T02:03:09.911Z,22.95
2018-08-19T02:05:39.485Z,22.80
2018-08-19T02:08:09.109Z,22.92
2018-08-19T02:10:38.675Z,22.92
2018-08-19T02:13:08.211Z,22.90
2018-08-19T02:15:37.791Z,22.93
2018-08-19T02:18:07.359Z,22.95
2018-08-19T02:20:38.773Z,23.01
2018-08-19T02:23:09.765Z,23.01
2018-08-19T02:25:43.283Z,22.93
2018-08-19T02:28:13.444Z,22.90
2018-08-19T02:30:52.718Z,22.83
2018-08-19T02:33:23.451Z,22.81
2018-08-19T02:36:01.156Z,22.90
2018-08-19T02:38:30.782Z,22.84
2018-08-19T02:41:00.330Z,22.82
2018-08-19T02:43:29.987Z,22.80
2018-08-19T02:45:59.592Z,22.82
2018-08-19T02:48:42.904Z,22.80
2018-08-19T02:51:14.639Z,22.74
2018-08-19T02:53:45.444Z,22.09
2018-08-19T02:56:15.750Z,22.77
2018-08-19T02:58:46.416Z,22.69
2018-08-19T03:01:16.974Z,22.64
2018-08-19T03:03:46.543Z,22.69
2018-08-19T03:06:16.143Z,22.75
2018-08-19T03:08:50.755Z,22.75
2018-08-19T03:11:21.740Z,22.80
2018-08-19T03:13:51.286Z,22.75
2018-08-19T03:16:20.868Z,22.72
2018-08-19T03:18:52.535Z,22.63
2018-08-19T03:21:22.959Z,22.63
2018-08-19T03:23:53.740Z,22.60
2018-08-19T03:26:23.337Z,22.52
2018-08-19T03:28:52.891Z,22.63
2018-08-19T03:31:22.445Z,22.65
2018-08-19T03:33:51.971Z,22.61
2018-08-19T03:36:21.549Z,22.59
2018-08-19T03:38:51.336Z,22.57
2018-08-19T03:41:20.928Z,22.53
2018-08-19T03:43:54.588Z,22.56
2018-08-19T03:46:24.147Z,22.55
2018-08-19T03:48:53.724Z,22.54
2018-08-19T03:51:23.283Z,22.49
2018-08-19T03:53:52.832Z,22.50
2018-08-19T03:56:27.740Z,22.49
2018-08-19T03:59:01.132Z,22.44
2018-08-19T04:01:38.935Z,22.48
2018-08-19T04:04:08.550Z,22.49
2018-08-19T04:06:39.648Z,22.47
2018-08-19T04:09:09.223Z,22.48
2018-08-19T04:11:38.797Z,22.61
2018-08-19T04:14:24.408Z,22.75
2018-08-19T04:16:54.351Z,22.87
2018-08-19T04:19:25.599Z,23.00
2018-08-19T04:21:58.278Z,23.16
2018-08-19T04:24:28.225Z,23.27
2018-08-19T04:26:57.866Z,23.38
2018-08-19T04:29:28.483Z,23.54
2018-08-19T04:31:58.075Z,23.76
2018-08-19T04:34:27.640Z,23.99
2018-08-19T04:36:57.256Z,24.24
2018-08-19T04:39:26.925Z,24.38
2018-08-19T04:41:56.457Z,24.58
2018-08-19T04:44:26.149Z,24.77
2018-08-19T04:46:55.704Z,24.88
2018-08-19T04:49:25.245Z,24.97
2018-08-19T04:51:54.766Z,25.10
2018-08-19T04:54:24.384Z,25.28
2018-08-19T04:56:53.895Z,25.46
2018-08-19T04:59:23.488Z,25.50
2018-08-19T05:01:53.040Z,25.71
2018-08-19T05:04:22.649Z,25.96
2018-08-19T05:06:52.222Z,26.06
2018-08-19T05:09:21.836Z,26.22
2018-08-19T05:11:51.349Z,26.33
2018-08-19T05:14:20.989Z,26.41
2018-08-19T05:16:50.477Z,26.49
2018-08-19T05:19:20.059Z,26.76
2018-08-19T05:21:49.659Z,26.68
2018-08-19T05:24:19.150Z,26.72
2018-08-19T05:26:50.976Z,26.72
2018-08-19T05:29:20.540Z,27.20
2018-08-19T05:31:58.047Z,26.80
2018-08-19T05:34:31.071Z,27.24
2018-08-19T05:37:00.975Z,27.40
2018-08-19T05:39:30.659Z,27.36
2018-08-19T05:42:07.733Z,27.33
2018-08-19T05:44:38.311Z,27.31
2018-08-19T05:47:10.868Z,27.57
2018-08-19T05:49:41.693Z,27.46
2018-08-19T05:52:16.923Z,27.72
2018-08-19T05:55:03.759Z,27.72
2018-08-19T05:57:35.163Z,27.89
2018-08-19T06:00:10.203Z,28.09
2018-08-19T06:02:42.659Z,28.22
2018-08-19T06:05:12.272Z,28.38
2018-08-19T06:07:41.915Z,28.33
2018-08-19T06:10:11.435Z,28.70
2018-08-19T06:12:40.987Z,28.89
2018-08-19T06:15:10.644Z,28.86
2018-08-19T06:17:40.217Z,28.88
2018-08-19T06:20:09.760Z,28.98
2018-08-19T06:22:40.317Z,29.13
2018-08-19T06:25:10.844Z,29.34
2018-08-19T06:27:45.443Z,29.56
2018-08-19T06:30:15.758Z,29.56
2018-08-19T06:32:45.518Z,29.58
2018-08-19T06:35:15.246Z,29.79
2018-08-19T06:37:44.859Z,29.92
2018-08-19T06:40:17.238Z,30.04
2018-08-19T06:42:46.889Z,30.37
2018-08-19T06:45:16.607Z,30.58
2018-08-19T06:47:46.323Z,30.66
2018-08-19T06:50:38.982Z,30.88
2018-08-19T06:53:13.756Z,31.13
2018-08-19T06:55:43.412Z,31.32
2018-08-19T06:58:13.059Z,31.37
2018-08-19T07:00:42.684Z,31.31
2018-08-19T07:03:12.331Z,31.42
2018-08-19T07:05:41.838Z,31.60
2018-08-19T07:08:11.429Z,31.66
2018-08-19T07:10:42.106Z,31.74
2018-08-19T07:13:13.902Z,31.50
2018-08-19T07:15:44.519Z,31.82
2018-08-19T07:18:15.371Z,32.02
2018-08-19T07:20:45.474Z,32.02
2018-08-19T07:23:15.083Z,31.91
2018-08-19T07:25:45.629Z,32.25
2018-08-19T07:28:16.743Z,32.28
2018-08-19T07:30:46.324Z,31.96
2018-08-19T07:33:15.915Z,31.95
2018-08-19T07:35:45.419Z,32.21
2018-08-19T07:38:14.975Z,32.00
2018-08-19T07:40:44.483Z,32.06
2018-08-19T07:43:14.083Z,32.16
2018-08-19T07:45:43.664Z,32.24
2018-08-19T07:48:13.199Z,32.40
2018-08-19T07:50:42.706Z,32.44
2018-08-19T07:53:12.240Z,32.21
2018-08-19T07:55:41.873Z,32.35
2018-08-19T07:58:11.435Z,32.34
2018-08-19T08:00:41.876Z,32.08
2018-08-19T08:03:11.671Z,32.14
2018-08-19T08:05:46.272Z,31.98
2018-08-19T08:08:15.818Z,32.12
2018-08-19T08:10:45.382Z,32.25
2018-08-19T08:13:15.016Z,32.21
2018-08-19T08:15:49.617Z,32.27
2018-08-19T08:18:19.279Z,32.55
2018-08-19T08:20:48.944Z,32.66
2018-08-19T08:23:22.924Z,32.73
2018-08-19T08:25:52.555Z,32.70
2018-08-19T08:28:22.263Z,32.73
2018-08-19T08:30:51.836Z,32.66
2018-08-19T08:33:21.559Z,32.56
2018-08-19T08:35:55.349Z,32.91
2018-08-19T08:38:24.883Z,32.94
2018-08-19T08:40:54.984Z,32.95
2018-08-19T08:43:24.571Z,32.98
2018-08-19T08:45:56.837Z,33.02
2018-08-19T08:48:26.739Z,33.20
2018-08-19T08:50:56.379Z,32.67
2018-08-19T08:53:31.312Z,33.10
2018-08-19T08:56:00.975Z,33.34
2018-08-19T08:58:30.570Z,33.52
2018-08-19T09:01:00.444Z,33.60
2018-08-19T09:03:30.147Z,33.43
2018-08-19T09:05:59.850Z,33.48
2018-08-19T09:08:29.518Z,33.76
2018-08-19T09:11:00.248Z,33.85
2018-08-19T09:13:29.883Z,33.96
2018-08-19T09:15:59.472Z,33.81
2018-08-19T09:18:28.959Z,33.68
2018-08-19T09:20:58.575Z,33.80
2018-08-19T09:23:28.573Z,34.06
2018-08-19T09:25:58.178Z,34.12
2018-08-19T09:28:27.755Z,33.96
2018-08-19T09:30:57.340Z,33.85
2018-08-19T09:33:26.923Z,33.97
2018-08-19T09:35:56.540Z,33.93
2018-08-19T09:38:26.191Z,34.06
2018-08-19T09:40:55.731Z,34.23
2018-08-19T09:43:25.315Z,34.07
2018-08-19T09:45:55.048Z,34.06
2018-08-19T09:48:24.566Z,33.96
2018-08-19T09:50:56.611Z,33.96
2018-08-19T09:53:26.161Z,34.11
2018-08-19T09:56:00.863Z,34.21
2018-08-19T09:58:30.416Z,34.39
2018-08-19T10:01:04.887Z,34.55
2018-08-19T10:03:34.435Z,34.56
2018-08-19T10:06:04.105Z,34.68
2018-08-19T10:08:33.723Z,34.64
2018-08-19T10:11:03.355Z,34.69
2018-08-19T10:13:33.062Z,34.91
2018-08-19T10:16:02.531Z,35.01
2018-08-19T10:18:32.124Z,35.15
2018-08-19T10:21:05.722Z,34.85
2018-08-19T10:23:35.215Z,34.95
2018-08-19T10:26:04.783Z,35.00
2018-08-19T10:28:34.275Z,35.20
2018-08-19T10:31:04.484Z,35.10
2018-08-19T10:33:33.976Z,35.24
2018-08-19T10:36:03.559Z,35.35
2018-08-19T10:38:33.067Z,35.40
2018-08-19T10:41:05.661Z,35.42
2018-08-19T10:43:35.372Z,35.41
2018-08-19T10:46:05.016Z,35.45
2018-08-19T10:48:34.532Z,35.59
2018-08-19T10:51:04.166Z,35.39
2018-08-19T10:53:33.807Z,35.45
2018-08-19T10:56:04.027Z,35.54
2018-08-19T10:58:33.747Z,35.39
2018-08-19T11:01:03.396Z,35.33
2018-08-19T11:03:33.041Z,35.38
2018-08-19T11:06:02.573Z,35.02
2018-08-19T11:08:32.322Z,35.51
2018-08-19T11:11:02.560Z,35.44
2018-08-19T11:13:32.239Z,35.32
2018-08-19T11:16:01.745Z,35.28
2018-08-19T11:18:38.353Z,35.34
2018-08-19T11:21:11.506Z,35.49
2018-08-19T11:23:42.551Z,35.31
2018-08-19T11:26:12.710Z,35.40
2018-08-19T11:28:46.439Z,35.27
2018-08-19T11:31:23.194Z,35.16
2018-08-19T11:33:53.548Z,35.16
2018-08-19T11:36:30.852Z,35.33
2018-08-19T11:39:00.592Z,35.13
2018-08-19T11:41:32.015Z,35.25
2018-08-19T11:44:09.494Z,34.81
2018-08-19T11:46:39.104Z,35.35
2018-08-19T11:49:10.159Z,35.34
2018-08-19T11:51:52.852Z,35.43
2018-08-19T11:54:23.300Z,35.30
2018-08-19T11:57:00.718Z,35.13
2018-08-19T11:59:35.275Z,35.29
2018-08-19T12:02:06.000Z,35.20
2018-08-19T12:04:35.678Z,35.38
2018-08-19T12:07:05.383Z,35.27
2018-08-19T12:09:35.092Z,35.40
2018-08-19T12:12:04.647Z,35.51
2018-08-19T12:14:35.507Z,35.57
2018-08-19T12:17:09.652Z,35.70
2018-08-19T12:19:40.378Z,35.63
2018-08-19T12:22:10.190Z,35.78
2018-08-19T12:24:46.551Z,35.60
2018-08-19T12:27:22.724Z,35.43
2018-08-19T12:30:01.045Z,35.32
2018-08-19T12:32:30.628Z,35.50
2018-08-19T12:35:01.146Z,35.64
2018-08-19T12:37:32.029Z,35.82
2018-08-19T12:40:01.858Z,35.88
2018-08-19T12:42:32.246Z,35.81
2018-08-19T12:45:06.411Z,35.82
2018-08-19T12:47:36.415Z,35.83
2018-08-19T12:50:08.740Z,35.46
2018-08-19T12:52:38.265Z,35.42
2018-08-19T12:55:09.526Z,35.53
2018-08-19T12:57:39.934Z,35.31
2018-08-19T13:00:18.996Z,35.36
2018-08-19T13:02:50.072Z,35.10
2018-08-19T13:05:20.278Z,34.88
2018-08-19T13:07:49.994Z,34.93
2018-08-19T13:10:19.763Z,34.97
2018-08-19T13:12:52.891Z,34.53
2018-08-19T13:15:23.279Z,34.61
2018-08-19T13:17:53.039Z,34.43
2018-08-19T13:20:22.671Z,34.51
2018-08-19T13:22:59.706Z,34.54
2018-08-19T13:25:29.642Z,34.53
2018-08-19T13:27:59.228Z,34.40
2018-08-19T13:30:28.835Z,34.34
2018-08-19T13:32:58.434Z,34.04
2018-08-19T13:35:27.983Z,33.66
2018-08-19T13:37:57.628Z,33.33
2018-08-19T13:40:27.195Z,33.21
2018-08-19T13:42:56.751Z,33.43
2018-08-19T13:45:27.283Z,33.52
2018-08-19T13:47:56.793Z,33.52
2018-08-19T13:50:26.381Z,33.36
2018-08-19T13:52:55.926Z,33.54
2018-08-19T13:55:25.526Z,33.48
2018-08-19T13:57:55.102Z,33.44
2018-08-19T14:00:28.856Z,33.43
2018-08-19T14:02:59.852Z,33.48
2018-08-19T14:05:29.403Z,33.47
2018-08-19T14:07:58.949Z,33.52
2018-08-19T14:10:28.560Z,33.43
2018-08-19T14:12:58.144Z,33.37
2018-08-19T14:15:27.667Z,33.38
2018-08-19T14:17:57.336Z,33.25
2018-08-19T14:20:26.867Z,33.24
2018-08-19T14:22:56.420Z,33.23
2018-08-19T14:25:25.970Z,33.33
2018-08-19T14:27:55.463Z,33.38
2018-08-19T14:30:25.081Z,33.46
2018-08-19T14:32:54.644Z,33.54
2018-08-19T14:35:24.186Z,33.65
2018-08-19T14:37:53.767Z,33.76
2018-08-19T14:40:23.578Z,33.88
2018-08-19T14:42:52.994Z,33.98
2018-08-19T14:45:22.571Z,34.07
2018-08-19T14:47:52.063Z,34.07
2018-08-19T14:50:21.747Z,34.12
2018-08-19T14:52:51.344Z,34.06
2018-08-19T14:55:20.891Z,33.90
2018-08-19T14:57:50.402Z,33.86
2018-08-19T15:00:19.947Z,33.72
2018-08-19T15:02:49.527Z,33.61
2018-08-19T15:05:20.538Z,33.59
2018-08-19T15:07:50.306Z,33.56
2018-08-19T15:10:26.374Z,33.51
2018-08-19T15:12:55.925Z,33.57
2018-08-19T15:15:25.527Z,33.44
2018-08-19T15:18:01.701Z,32.86
2018-08-19T15:20:33.650Z,31.47
2018-08-19T15:23:15.787Z,31.29
2018-08-19T15:25:45.512Z,30.41
2018-08-19T15:28:15.459Z,30.50
2018-08-19T15:30:44.975Z,30.01
2018-08-19T15:33:15.354Z,29.24
2018-08-19T15:35:45.019Z,29.14
2018-08-19T15:38:14.632Z,28.84
2018-08-19T15:40:46.189Z,28.83
2018-08-19T15:43:15.764Z,28.40
2018-08-19T15:45:45.786Z,28.13
2018-08-19T15:48:15.412Z,28.13
2018-08-19T15:50:45.028Z,28.34
2018-08-19T15:53:14.697Z,28.57
2018-08-19T15:55:44.308Z,28.67
2018-08-19T15:58:13.844Z,28.61
2018-08-19T16:00:43.388Z,28.72
2018-08-19T16:03:13.446Z,28.77
2018-08-19T16:05:42.972Z,28.81
2018-08-19T16:08:12.487Z,28.18
2018-08-19T16:10:42.859Z,28.71
2018-08-19T16:13:12.802Z,28.70
2018-08-19T16:15:42.476Z,28.69
2018-08-19T16:18:12.097Z,28.49
2018-08-19T16:20:44.596Z,28.59
2018-08-19T16:23:14.204Z,28.63
2018-08-19T16:25:43.779Z,28.67
2018-08-19T16:28:13.389Z,28.66
2018-08-19T16:30:42.937Z,28.67
2018-08-19T16:33:12.475Z,28.67
2018-08-19T16:35:41.979Z,28.72
2018-08-19T16:38:11.624Z,28.72
2018-08-19T16:40:41.215Z,28.74
2018-08-19T16:43:10.767Z,28.70
2018-08-19T16:45:40.375Z,28.66
2018-08-19T16:48:09.980Z,28.63
2018-08-19T16:50:39.600Z,28.68
2018-08-19T16:53:09.147Z,28.69
2018-08-19T16:55:38.715Z,28.64
2018-08-19T16:58:08.270Z,28.65
2018-08-19T17:00:37.807Z,28.61
2018-08-19T17:03:40.858Z,28.59
2018-08-19T17:06:12.763Z,28.57
2018-08-19T17:08:42.704Z,28.57
2018-08-19T17:11:13.315Z,28.54
2018-08-19T17:13:42.904Z,28.53
2018-08-19T17:16:12.499Z,28.49
2018-08-19T17:18:42.052Z,28.46
2018-08-19T17:21:11.652Z,28.39
2018-08-19T17:23:41.150Z,28.20
2018-08-19T17:26:18.599Z,28.01
2018-08-19T17:28:48.111Z,27.84
2018-08-19T17:31:17.652Z,27.87
2018-08-19T17:33:47.187Z,27.90
2018-08-19T17:36:37.302Z,27.87
2018-08-19T17:39:10.106Z,27.85
2018-08-19T17:41:39.674Z,27.82
2018-08-19T17:44:09.247Z,27.76
2018-08-19T17:46:38.752Z,27.77
2018-08-19T17:49:12.783Z,27.71
2018-08-19T17:51:42.327Z,27.58
2018-08-19T17:54:27.114Z,27.60
2018-08-19T17:56:57.820Z,27.59
2018-08-19T17:59:27.448Z,27.51
2018-08-19T18:01:57.081Z,27.49
2018-08-19T18:04:33.375Z,27.48
2018-08-19T18:07:02.883Z,27.48
2018-08-19T18:09:32.552Z,27.45
2018-08-19T18:12:05.144Z,27.45
2018-08-19T18:14:35.492Z,27.42
2018-08-19T18:17:05.081Z,27.39
2018-08-19T18:19:35.119Z,27.37
2018-08-19T18:22:04.796Z,27.35
2018-08-19T18:24:34.405Z,27.32
2018-08-19T18:27:03.996Z,27.25
2018-08-19T18:29:44.459Z,27.20
2018-08-19T18:32:14.080Z,27.18
2018-08-19T18:34:43.608Z,27.16
2018-08-19T18:37:13.163Z,27.16
2018-08-19T18:39:44.886Z,27.12
2018-08-19T18:42:21.927Z,27.11
2018-08-19T18:44:51.543Z,27.06
2018-08-19T18:47:21.153Z,27.04
2018-08-19T18:49:50.991Z,26.91
2018-08-19T18:52:20.507Z,26.87
2018-08-19T18:54:50.035Z,26.86
2018-08-19T18:57:19.624Z,26.80
2018-08-19T18:59:49.162Z,26.80
2018-08-19T19:02:18.720Z,26.76
2018-08-19T19:04:48.243Z,26.71
2018-08-19T19:07:17.799Z,26.64
2018-08-19T19:09:51.311Z,26.66
2018-08-19T19:12:22.071Z,26.64
2018-08-19T19:14:51.599Z,26.63
2018-08-19T19:17:21.113Z,26.49
2018-08-19T19:19:50.973Z,26.51
2018-08-19T19:22:20.463Z,26.49
2018-08-19T19:24:52.782Z,26.42
2018-08-19T19:27:22.297Z,26.42
2018-08-19T19:29:56.992Z,26.39
2018-08-19T19:32:26.567Z,26.36
2018-08-19T19:34:57.215Z,26.33
2018-08-19T19:37:26.703Z,26.28
2018-08-19T19:40:01.349Z,26.25
2018-08-19T19:42:30.896Z,26.22
2018-08-19T19:45:00.716Z,26.19
2018-08-19T19:47:30.243Z,26.15
2018-08-19T19:50:00.192Z,26.10
2018-08-19T19:52:30.214Z,26.08
2018-08-19T19:54:59.731Z,26.06
2018-08-19T19:57:29.259Z,26.00
2018-08-19T19:59:58.763Z,25.98
2018-08-19T20:02:30.135Z,25.94
2018-08-19T20:05:00.263Z,25.94
2018-08-19T20:07:29.799Z,25.90
2018-08-19T20:09:59.318Z,25.94
2018-08-19T20:12:30.038Z,25.88
2018-08-19T20:15:01.736Z,25.84
2018-08-19T20:17:31.367Z,25.82
2018-08-19T20:20:00.851Z,25.80
2018-08-19T20:22:30.479Z,25.74
2018-08-19T20:25:00.030Z,25.70
2018-08-19T20:27:29.668Z,25.69
2018-08-19T20:29:59.263Z,25.67
2018-08-19T20:32:28.881Z,25.61
2018-08-19T20:34:58.532Z,25.53
2018-08-19T20:37:30.053Z,25.55
2018-08-19T20:39:59.554Z,25.56
2018-08-19T20:42:29.181Z,25.41
2018-08-19T20:44:58.679Z,25.25
2018-08-19T20:47:28.289Z,25.22
2018-08-19T20:49:57.895Z,25.15
2018-08-19T20:52:45.266Z,25.14
2018-08-19T20:55:15.126Z,24.99
2018-08-19T20:57:44.973Z,25.09
2018-08-19T21:00:14.632Z,25.19
2018-08-19T21:02:44.208Z,25.20
2018-08-19T21:05:13.743Z,25.17
2018-08-19T21:07:44.760Z,25.19
2018-08-19T21:10:14.387Z,25.20
2018-08-19T21:12:43.940Z,25.28
2018-08-19T21:15:13.631Z,25.27
2018-08-19T21:17:43.131Z,25.26
2018-08-19T21:20:12.691Z,25.25
2018-08-19T21:22:42.190Z,25.20
2018-08-19T21:25:11.695Z,24.94
2018-08-19T21:27:41.188Z,24.81
2018-08-19T21:30:10.872Z,24.77
2018-08-19T21:32:40.329Z,24.68
2018-08-19T21:35:09.917Z,24.69
2018-08-19T21:37:39.408Z,24.63
2018-08-19T21:40:09.053Z,24.60
2018-08-19T21:42:51.115Z,24.73
2018-08-19T21:45:20.992Z,24.76
2018-08-19T21:47:50.615Z,24.78
2018-08-19T21:50:20.131Z,24.68
2018-08-19T21:52:59.843Z,24.65
2018-08-19T21:55:31.943Z,24.68
2018-08-19T21:58:02.086Z,24.69
2018-08-19T22:00:34.835Z,24.68
2018-08-19T22:03:09.471Z,24.61
2018-08-19T22:05:39.108Z,24.58
2018-08-19T22:08:08.744Z,24.54
2018-08-19T22:10:38.401Z,24.47
2018-08-19T22:13:07.936Z,24.35
2018-08-19T22:15:38.422Z,24.37
2018-08-19T22:18:09.569Z,24.40
2018-08-19T22:20:39.267Z,24.32
2018-08-19T22:23:08.806Z,24.19
2018-08-19T22:25:38.409Z,24.00
2018-08-19T22:28:07.965Z,23.91
2018-08-19T22:30:37.473Z,23.79
2018-08-19T22:33:07.026Z,23.81
2018-08-19T22:35:36.516Z,23.81
2018-08-19T22:38:10.187Z,23.67
2018-08-19T22:40:39.664Z,23.74
2018-08-19T22:43:09.303Z,23.76
2018-08-19T22:45:38.870Z,23.68
2018-08-19T22:48:08.476Z,23.72
2018-08-19T22:50:38.084Z,23.72
2018-08-19T22:53:07.639Z,23.60
2018-08-19T22:55:37.196Z,23.08
2018-08-19T22:58:11.860Z,23.68
2018-08-19T23:00:41.563Z,23.82
2018-08-19T23:03:11.286Z,23.82
2018-08-19T23:05:40.835Z,23.77
2018-08-19T23:08:11.296Z,23.79
2018-08-19T23:10:40.873Z,23.69
2018-08-19T23:15:25.217Z,23.73
2018-08-19T23:17:54.699Z,23.78
2018-08-19T23:20:24.271Z,23.76
2018-08-19T23:22:53.831Z,23.76
2018-08-19T23:25:23.470Z,23.76
2018-08-19T23:27:52.971Z,23.74
2018-08-19T23:30:22.526Z,23.77
2018-08-19T23:32:52.091Z,23.73
2018-08-19T23:35:21.632Z,23.64
2018-08-19T23:37:51.199Z,23.80
2018-08-19T23:40:20.743Z,23.85
2018-08-19T23:42:50.309Z,23.83
2018-08-19T23:45:19.843Z,23.80
2018-08-19T23:47:49.339Z,23.81
2018-08-19T23:50:18.908Z,23.77
2018-08-19T23:52:48.399Z,23.77
2018-08-19T23:55:17.972Z,23.79
2018-08-19T23:57:47.466Z,23.80
